Time;durP1;ratioP1;P1;durP2;ratioP2;P2;SDS_P1;SDS_P2;PMS_P1;PMS_P2;Temp;Humidity;BMP_temperature;BMP_pressure;BME280_temperature;BME280_humidity;BME280_pressure;Samples;Min_cycle;Max_cycle;Signal;HPM_P1;HPM_P2
2021/10/02 00:36:18;;;;;;;16.70;9.32;;;13.00;93.30;;;;;;4983132;28;20031;-76
2021/10/02 00:46:46;;;;;;;18.00;8.85;;;12.90;93.40;;;;;;4985430;28;20064;-74
2021/10/02 00:49:13;;;;;;;17.42;8.52;;;12.80;93.40;;;;;;4987287;28;20038;-73
2021/10/02 00:51:40;;;;;;;16.60;8.30;;;12.80;93.50;;;;;;4989102;28;20069;-74
2021/10/02 00:54:06;;;;;;;17.10;8.75;;;12.80;93.50;;;;;;4988131;28;20107;-74
2021/10/02 00:56:32;;;;;;;18.17;8.98;;;12.80;93.60;;;;;;4986875;28;20033;-72
2021/10/02 00:58:57;;;;;;;15.63;8.90;;;12.80;93.50;;;;;;4997983;28;20029;-75
2021/10/02 01:01:32;;;;;;;15.70;8.10;;;12.80;93.60;;;;;;5005082;28;20046;-74
2021/10/02 01:04:16;;;;;;;16.38;8.20;;;12.70;93.60;;;;;;5002563;28;20052;-74
2021/10/02 01:07:18;;;;;;;18.73;9.02;;;12.60;93.50;;;;;;5009098;28;20037;-72
2021/10/02 01:10:16;;;;;;;15.77;8.30;;;12.60;93.60;;;;;;5003500;28;20038;-73
2021/10/02 01:13:06;;;;;;;17.85;8.13;;;12.60;93.60;;;;;;5016433;28;20034;-72
2021/10/02 01:15:54;;;;;;;17.23;8.82;;;12.60;93.60;;;;;;5001475;28;21076;-74
2021/10/02 01:18:45;;;;;;;17.85;8.25;;;12.50;93.50;;;;;;5010502;28;20033;-72
2021/10/02 01:21:47;;;;;;;18.17;8.07;;;12.40;93.50;;;;;;5004966;28;20489;-72
2021/10/02 01:24:35;;;;;;;16.90;8.15;;;12.40;93.60;;;;;;5009873;28;20121;-75
2021/10/02 01:27:17;;;;;;;15.93;8.55;;;12.30;93.50;;;;;;5010824;28;20038;-75
2021/10/02 01:29:44;;;;;;;16.70;7.88;;;12.30;93.60;;;;;;5006392;28;20350;-77
2021/10/02 01:32:21;;;;;;;15.88;8.50;;;12.20;93.60;;;;;;5002291;28;20049;-79
2021/10/02 01:35:08;;;;;;;18.67;9.07;;;12.20;93.60;;;;;;5008015;28;20454;-72
2021/10/02 01:48:43;;;;;;;15.65;7.97;;;12.00;93.70;;;;;;5011829;28;20369;-73
2021/10/02 01:51:11;;;;;;;14.57;7.97;;;12.00;93.70;;;;;;5005827;28;20359;-77
2021/10/02 01:53:38;;;;;;;18.83;7.47;;;12.00;93.80;;;;;;5009777;28;20018;-72
2021/10/02 01:56:06;;;;;;;17.33;8.05;;;11.90;93.80;;;;;;5014801;28;20077;-73
2021/10/02 01:58:33;;;;;;;18.27;8.23;;;11.90;93.80;;;;;;5000363;28;20034;-75
2021/10/02 02:01:03;;;;;;;16.83;7.78;;;11.90;93.80;;;;;;4999758;28;20473;-75
2021/10/02 02:03:33;;;;;;;15.18;7.72;;;11.90;93.80;;;;;;5006461;28;20469;-71
2021/10/02 02:06:01;;;;;;;12.43;7.45;;;11.80;93.90;;;;;;5007340;28;20026;-72
2021/10/02 02:08:28;;;;;;;17.30;8.05;;;11.80;93.90;;;;;;5007965;28;21519;-74
2021/10/02 02:10:56;;;;;;;16.40;7.88;;;11.80;94.00;;;;;;5011084;28;20537;-72
2021/10/02 02:13:23;;;;;;;16.58;8.10;;;11.80;93.90;;;;;;5005655;28;20045;-77
2021/10/02 02:15:50;;;;;;;17.52;9.10;;;11.80;93.90;;;;;;5002825;28;20065;-73
2021/10/02 02:18:20;;;;;;;14.02;7.80;;;11.80;93.90;;;;;;4973310;28;20042;-72
2021/10/02 02:21:01;;;;;;;18.88;7.80;;;11.80;93.90;;;;;;4986027;28;20062;-72
2021/10/02 02:23:28;;;;;;;15.93;7.85;;;11.80;93.80;;;;;;4985545;28;20501;-72
2021/10/02 02:26:03;;;;;;;11.55;7.50;;;11.80;93.80;;;;;;4985624;28;20490;-72
2021/10/02 02:28:31;;;;;;;16.02;8.02;;;11.70;93.80;;;;;;4986241;28;20081;-72
2021/10/02 02:30:58;;;;;;;17.40;8.07;;;11.60;93.80;;;;;;4985801;28;20072;-73
2021/10/02 02:33:24;;;;;;;19.90;9.27;;;11.60;93.80;;;;;;4998855;28;20089;-72
2021/10/02 02:35:52;;;;;;;16.00;8.93;;;11.60;93.80;;;;;;4991482;28;20061;-73
2021/10/02 02:38:17;;;;;;;16.75;8.40;;;11.60;93.90;;;;;;4989496;28;20054;-72
2021/10/02 02:40:43;;;;;;;14.45;8.15;;;11.60;93.90;;;;;;4986847;28;20449;-76
2021/10/02 02:43:10;;;;;;;17.27;8.65;;;11.60;93.90;;;;;;4991242;28;20061;-73
2021/10/02 02:45:36;;;;;;;16.42;8.07;;;11.60;93.90;;;;;;4988680;28;20044;-73
2021/10/02 02:48:04;;;;;;;14.77;8.30;;;11.60;93.90;;;;;;4987655;28;20109;-74
2021/10/02 02:50:49;;;;;;;15.60;10.00;;;11.50;93.80;;;;;;4982459;28;20478;-73
2021/10/02 02:53:36;;;;;;;17.83;8.02;;;11.50;93.70;;;;;;4987185;28;20042;-72
2021/10/02 02:56:11;;;;;;;15.65;8.68;;;11.50;93.80;;;;;;4984571;28;20122;-73
2021/10/02 02:58:39;;;;;;;19.95;9.13;;;11.40;93.80;;;;;;4985051;28;20533;-75
2021/10/02 03:01:06;;;;;;;17.00;9.25;;;11.40;93.70;;;;;;4984154;28;20050;-74
2021/10/02 03:03:37;;;;;;;23.17;11.18;;;11.40;93.70;;;;;;4990823;28;20030;-72
2021/10/02 03:06:13;;;;;;;19.63;13.30;;;11.40;93.80;;;;;;4984693;28;20042;-72
2021/10/02 03:08:41;;;;;;;26.60;13.00;;;11.40;93.90;;;;;;4990651;28;20463;-72
2021/10/02 03:11:08;;;;;;;17.33;13.27;;;11.50;93.90;;;;;;4989651;28;20118;-74
2021/10/02 03:13:39;;;;;;;24.30;14.50;;;11.50;93.90;;;;;;4988518;28;20113;-72
2021/10/02 03:16:10;;;;;;;23.88;13.52;;;11.50;93.90;;;;;;4981579;28;20042;-73
2021/10/02 03:18:40;;;;;;;20.77;14.85;;;11.50;93.90;;;;;;4987502;28;20041;-78
2021/10/02 03:21:07;;;;;;;19.92;14.32;;;11.50;93.90;;;;;;4988687;28;20545;-73
2021/10/02 03:23:33;;;;;;;26.95;15.90;;;11.50;93.90;;;;;;4989939;28;20081;-72
2021/10/02 03:26:01;;;;;;;27.25;16.85;;;11.50;93.90;;;;;;4994920;28;20046;-73
2021/10/02 03:28:29;;;;;;;21.70;16.60;;;11.50;93.90;;;;;;4985496;28;20044;-75
2021/10/02 03:30:56;;;;;;;21.13;15.80;;;11.50;93.90;;;;;;4984947;28;20030;-72
2021/10/02 03:33:23;;;;;;;21.70;15.43;;;11.50;93.90;;;;;;4988237;28;20398;-72
2021/10/02 03:35:49;;;;;;;19.65;15.13;;;11.40;93.90;;;;;;4991263;28;20062;-72
2021/10/02 03:38:15;;;;;;;19.95;15.25;;;11.40;93.90;;;;;;4987912;28;20068;-77
2021/10/02 03:40:41;;;;;;;27.08;16.17;;;11.50;93.90;;;;;;4987047;28;20034;-72
2021/10/02 03:43:07;;;;;;;21.10;15.30;;;11.50;93.90;;;;;;4983478;28;20463;-73
2021/10/02 03:45:38;;;;;;;22.30;16.60;;;11.50;93.90;;;;;;4985075;28;20053;-72
2021/10/02 03:48:04;;;;;;;21.25;16.70;;;11.50;93.80;;;;;;4983128;28;20027;-72
2021/10/02 03:50:30;;;;;;;23.67;16.85;;;11.50;93.90;;;;;;4983697;28;20129;-73
2021/10/02 03:52:56;;;;;;;22.02;17.05;;;11.50;93.90;;;;;;4988333;28;20081;-72
2021/10/02 03:55:22;;;;;;;22.75;16.23;;;11.40;93.80;;;;;;4989325;28;20038;-72
2021/10/02 03:57:48;;;;;;;23.00;16.10;;;11.40;93.90;;;;;;4990247;28;20053;-72
2021/10/02 04:00:15;;;;;;;22.40;17.33;;;11.40;93.90;;;;;;4983794;28;20441;-73
2021/10/02 04:02:41;;;;;;;23.88;17.67;;;11.40;93.90;;;;;;4988842;28;20137;-72
2021/10/02 04:05:07;;;;;;;25.60;18.02;;;11.40;94.00;;;;;;4984354;28;20466;-73
2021/10/02 04:07:33;;;;;;;23.70;16.88;;;11.40;94.00;;;;;;4985019;28;20035;-72
2021/10/02 04:09:59;;;;;;;23.17;17.75;;;11.40;94.00;;;;;;4979252;28;20537;-72
2021/10/02 04:12:24;;;;;;;23.77;17.63;;;11.40;94.00;;;;;;4981118;28;20113;-73
2021/10/02 04:14:50;;;;;;;27.63;17.55;;;11.40;93.90;;;;;;4988821;28;20034;-74
2021/10/02 04:17:17;;;;;;;21.70;16.85;;;11.40;93.90;;;;;;4987685;28;20097;-76
2021/10/02 04:19:43;;;;;;;29.58;18.90;;;11.30;93.90;;;;;;4983471;28;20046;-72
2021/10/02 04:22:12;;;;;;;26.73;17.52;;;11.40;93.90;;;;;;4986245;28;20037;-72
2021/10/02 04:24:40;;;;;;;23.55;17.13;;;11.40;93.90;;;;;;4985433;28;20034;-73
2021/10/02 04:27:07;;;;;;;28.45;18.15;;;11.40;93.90;;;;;;4978942;28;20042;-76
2021/10/02 04:29:32;;;;;;;22.25;16.73;;;11.40;93.90;;;;;;4992898;28;20120;-72
2021/10/02 04:31:58;;;;;;;61.47;19.08;;;11.40;93.80;;;;;;4997410;28;20122;-72
2021/10/02 04:34:24;;;;;;;69.95;21.02;;;11.40;93.80;;;;;;5004498;28;20022;-73
2021/10/02 04:36:49;;;;;;;28.25;18.67;;;11.30;93.70;;;;;;5000024;28;20040;-74
2021/10/02 04:39:15;;;;;;;30.30;19.58;;;11.30;93.60;;;;;;5007787;28;20478;-77
2021/10/02 04:41:41;;;;;;;35.50;18.88;;;11.30;93.70;;;;;;5007124;28;20073;-72
2021/10/02 04:44:07;;;;;;;23.67;17.45;;;11.30;93.70;;;;;;5007712;28;20061;-72
2021/10/02 04:46:33;;;;;;;50.00;19.10;;;11.30;93.70;;;;;;5007949;28;20041;-72
2021/10/02 04:48:58;;;;;;;36.95;17.35;;;11.20;93.60;;;;;;5004338;28;20034;-72
2021/10/02 04:51:24;;;;;;;29.80;17.35;;;11.20;93.70;;;;;;5005192;28;20553;-72
2021/10/02 04:53:50;;;;;;;26.58;18.30;;;11.20;93.60;;;;;;5005216;28;20526;-75
2021/10/02 04:56:17;;;;;;;90.55;19.15;;;11.30;93.70;;;;;;5007251;28;20497;-72
2021/10/02 04:58:43;;;;;;;31.88;17.65;;;11.30;93.60;;;;;;5000315;28;20077;-72
2021/10/02 05:01:10;;;;;;;56.75;18.48;;;11.20;93.60;;;;;;5000322;28;20069;-74
2021/10/02 05:03:37;;;;;;;26.67;18.58;;;11.20;93.50;;;;;;5001949;28;20036;-74
2021/10/02 05:06:04;;;;;;;27.48;18.90;;;11.10;93.50;;;;;;4999091;28;20070;-72
2021/10/02 05:08:30;;;;;;;28.42;19.33;;;11.20;93.60;;;;;;5002923;28;20026;-73
2021/10/02 05:10:56;;;;;;;29.55;21.00;;;11.20;93.60;;;;;;5001301;28;20030;-73
2021/10/02 05:13:22;;;;;;;33.08;20.85;;;11.20;93.60;;;;;;5001184;28;20109;-74
2021/10/02 05:15:47;;;;;;;31.20;21.42;;;11.30;93.60;;;;;;5006998;28;20128;-72
2021/10/02 05:18:13;;;;;;;36.60;23.13;;;11.40;93.30;;;;;;5006015;28;20388;-74
2021/10/02 05:20:39;;;;;;;32.33;22.00;;;11.40;93.20;;;;;;5007786;28;20474;-72
2021/10/02 05:23:05;;;;;;;39.63;23.45;;;11.40;93.20;;;;;;5006516;28;20470;-72
2021/10/02 05:25:31;;;;;;;41.33;22.33;;;11.50;93.10;;;;;;5001890;28;20394;-74
2021/10/02 05:27:57;;;;;;;41.78;24.92;;;11.50;93.10;;;;;;5007196;28;20117;-73
2021/10/02 05:30:22;;;;;;;35.45;23.25;;;11.50;93.10;;;;;;4999156;28;20100;-73
2021/10/02 05:32:48;;;;;;;39.97;26.15;;;11.50;93.20;;;;;;5004626;28;20498;-73
2021/10/02 05:35:14;;;;;;;43.60;25.48;;;11.60;93.20;;;;;;5007046;28;20041;-74
2021/10/02 05:37:39;;;;;;;43.90;25.05;;;11.60;93.20;;;;;;5002942;28;20041;-70
2021/10/02 05:40:06;;;;;;;43.55;25.08;;;11.60;93.20;;;;;;5002874;28;20038;-70
2021/10/02 05:42:32;;;;;;;39.78;24.75;;;11.60;93.20;;;;;;4998682;28;20030;-69
2021/10/02 05:44:57;;;;;;;42.80;24.95;;;11.70;93.20;;;;;;4997427;28;20038;-70
2021/10/02 05:47:23;;;;;;;46.47;25.95;;;11.70;93.10;;;;;;4999615;28;20040;-70
2021/10/02 05:49:49;;;;;;;39.67;24.05;;;11.70;93.10;;;;;;4999923;28;20037;-69
2021/10/02 05:52:14;;;;;;;41.97;24.88;;;11.70;93.10;;;;;;5002433;28;20035;-69
2021/10/02 05:54:40;;;;;;;42.22;25.17;;;11.80;93.10;;;;;;4996226;28;20041;-69
2021/10/02 05:57:06;;;;;;;42.90;25.20;;;11.80;93.10;;;;;;5000500;28;20026;-68
2021/10/02 05:59:32;;;;;;;49.67;27.92;;;11.80;93.10;;;;;;4999468;28;20050;-72
2021/10/02 06:01:58;;;;;;;51.92;28.92;;;11.90;93.10;;;;;;4998240;28;20432;-71
2021/10/02 06:04:23;;;;;;;68.65;32.63;;;11.90;93.00;;;;;;4997858;28;20515;-69
2021/10/02 06:06:49;;;;;;;68.18;33.20;;;11.90;93.00;;;;;;5002525;28;20061;-69
2021/10/02 06:09:15;;;;;;;74.78;35.70;;;12.00;92.90;;;;;;5007721;28;20096;-69
2021/10/02 06:11:41;;;;;;;83.10;37.25;;;12.00;92.90;;;;;;4999976;28;20498;-69
2021/10/02 06:14:06;;;;;;;90.65;36.63;;;12.10;92.90;;;;;;4996097;28;20041;-70
2021/10/02 06:16:35;;;;;;;88.82;38.53;;;12.10;92.80;;;;;;5000630;28;20082;-68
2021/10/02 06:19:02;;;;;;;81.40;35.42;;;12.10;92.80;;;;;;5000949;28;20040;-68
2021/10/02 06:21:28;;;;;;;87.90;38.10;;;12.10;92.80;;;;;;4996980;28;20481;-69
2021/10/02 06:23:58;;;;;;;81.53;36.10;;;12.20;92.80;;;;;;4996656;28;20056;-68
2021/10/02 06:26:24;;;;;;;92.43;39.50;;;12.20;92.80;;;;;;4999270;28;20046;-68
2021/10/02 06:28:50;;;;;;;92.25;38.40;;;12.20;92.70;;;;;;5001365;28;20038;-70
2021/10/02 06:31:17;;;;;;;85.68;36.70;;;12.30;92.70;;;;;;4995370;28;20453;-69
2021/10/02 06:33:43;;;;;;;81.03;34.65;;;12.30;92.70;;;;;;4997874;28;20157;-71
2021/10/02 06:36:09;;;;;;;68.55;32.75;;;12.30;92.60;;;;;;4996895;28;20474;-68
2021/10/02 06:38:34;;;;;;;62.75;29.75;;;12.30;92.60;;;;;;4996132;28;20485;-71
2021/10/02 06:41:00;;;;;;;54.67;27.65;;;12.40;92.70;;;;;;4990141;28;20038;-70
2021/10/02 06:43:26;;;;;;;58.58;28.15;;;12.40;92.60;;;;;;4996107;28;20030;-71
2021/10/02 06:45:51;;;;;;;46.28;24.55;;;12.50;92.60;;;;;;4993785;28;20034;-73
2021/10/02 06:48:17;;;;;;;39.83;22.50;;;12.50;92.60;;;;;;4998278;28;20029;-69
2021/10/02 06:50:43;;;;;;;35.60;20.75;;;12.60;92.40;;;;;;4993498;28;20045;-74
2021/10/02 06:53:08;;;;;;;36.47;22.85;;;12.60;92.40;;;;;;5001495;28;20116;-70
2021/10/02 06:55:34;;;;;;;33.95;19.65;;;12.60;92.30;;;;;;5007336;28;20033;-70
2021/10/02 06:58:00;;;;;;;32.33;19.70;;;12.70;92.40;;;;;;5003274;28;20042;-69
2021/10/02 07:00:26;;;;;;;29.95;18.33;;;12.70;92.40;;;;;;4980104;28;20043;-69
2021/10/02 07:02:51;;;;;;;28.77;18.73;;;12.70;92.30;;;;;;4983021;28;20039;-70
2021/10/02 07:05:17;;;;;;;28.23;17.40;;;12.70;92.30;;;;;;4974728;28;20390;-70
2021/10/02 07:07:43;;;;;;;29.77;18.88;;;12.80;92.20;;;;;;4984711;28;20073;-73
2021/10/02 07:10:10;;;;;;;38.13;18.65;;;12.90;92.20;;;;;;4981743;28;20031;-71
2021/10/02 07:12:36;;;;;;;26.30;16.88;;;12.90;92.00;;;;;;4982858;28;20497;-73
2021/10/02 07:15:04;;;;;;;30.67;17.60;;;13.00;92.00;;;;;;4982826;28;20078;-69
2021/10/02 07:17:29;;;;;;;29.45;18.13;;;13.00;91.90;;;;;;4979187;28;20034;-69
2021/10/02 07:19:55;;;;;;;29.80;18.30;;;13.00;91.80;;;;;;4980569;28;20034;-70
2021/10/02 07:22:21;;;;;;;33.08;20.67;;;13.10;91.80;;;;;;4981947;28;20046;-73
2021/10/02 07:24:46;;;;;;;41.67;21.67;;;13.10;91.70;;;;;;4980734;28;20070;-69
2021/10/02 07:27:12;;;;;;;38.25;22.73;;;13.10;91.70;;;;;;5003646;28;20120;-69
2021/10/02 07:29:38;;;;;;;38.95;23.52;;;13.20;91.50;;;;;;5007380;28;20034;-71
2021/10/02 07:32:04;;;;;;;44.03;24.70;;;13.20;91.40;;;;;;5003284;28;20054;-73
2021/10/02 07:34:30;;;;;;;44.60;24.58;;;13.20;91.40;;;;;;4997052;28;20038;-68
2021/10/02 07:36:56;;;;;;;49.88;27.80;;;13.20;91.20;;;;;;5001750;28;20126;-70
2021/10/02 07:39:21;;;;;;;49.95;27.95;;;13.30;91.10;;;;;;5003577;28;20030;-71
2021/10/02 07:41:49;;;;;;;47.97;30.08;;;13.20;91.10;;;;;;5003365;28;20046;-69
2021/10/02 07:44:19;;;;;;;52.30;28.60;;;13.30;91.20;;;;;;4999251;28;20081;-72
2021/10/02 07:46:52;;;;;;;46.97;26.75;;;13.40;91.10;;;;;;5006517;28;20040;-71
2021/10/02 07:49:19;;;;;;;46.70;28.45;;;13.40;90.70;;;;;;5000225;28;20045;-68
2021/10/02 07:51:47;;;;;;;41.88;26.90;;;13.50;90.60;;;;;;5006283;28;20393;-69
2021/10/02 07:54:13;;;;;;;44.55;28.80;;;13.60;90.30;;;;;;5004011;28;20179;-69
2021/10/02 07:56:40;;;;;;;46.13;29.20;;;13.60;90.20;;;;;;4997306;28;20065;-69
2021/10/02 07:59:06;;;;;;;41.10;27.77;;;13.60;89.90;;;;;;5002168;28;20068;-70
2021/10/02 08:01:34;;;;;;;35.08;25.15;;;13.60;89.90;;;;;;5001532;28;20045;-69
2021/10/02 08:04:04;;;;;;;39.35;24.98;;;13.70;89.70;;;;;;5002538;28;20117;-69
2021/10/02 08:06:30;;;;;;;36.33;23.92;;;13.80;89.60;;;;;;5013424;28;20030;-69
2021/10/02 08:08:57;;;;;;;30.33;20.35;;;13.80;89.70;;;;;;5014820;28;20030;-69
2021/10/02 08:11:22;;;;;;;32.35;23.48;;;13.80;89.50;;;;;;5007252;28;20534;-71
2021/10/02 08:13:48;;;;;;;33.65;21.70;;;14.00;89.40;;;;;;5001977;28;20117;-69
2021/10/02 08:16:16;;;;;;;29.80;21.35;;;14.00;89.30;;;;;;4985045;28;20040;-70
2021/10/02 08:18:44;;;;;;;33.67;19.55;;;14.00;89.30;;;;;;4986414;28;20022;-69
2021/10/02 08:21:11;;;;;;;23.80;16.77;;;14.10;89.30;;;;;;5005339;28;20105;-70
2021/10/02 08:23:38;;;;;;;24.42;15.88;;;14.10;89.40;;;;;;5003788;28;20113;-69
2021/10/02 08:26:05;;;;;;;24.80;16.08;;;14.20;89.10;;;;;;5007759;28;20050;-70
2021/10/02 08:28:33;;;;;;;23.05;15.20;;;14.20;88.90;;;;;;5005560;28;20397;-69
2021/10/02 08:31:03;;;;;;;25.00;14.55;;;14.30;88.50;;;;;;5006358;28;20038;-70
2021/10/02 08:33:29;;;;;;;24.88;16.25;;;14.30;88.40;;;;;;5008359;28;20053;-74
2021/10/02 08:35:54;;;;;;;25.10;16.40;;;14.30;88.40;;;;;;5006510;28;20089;-72
2021/10/02 08:38:20;;;;;;;22.30;15.57;;;14.30;88.30;;;;;;5004608;28;20018;-69
2021/10/02 08:40:46;;;;;;;24.35;16.40;;;14.30;88.60;;;;;;5000876;28;20034;-70
2021/10/02 08:43:13;;;;;;;21.73;16.30;;;14.40;88.30;;;;;;5003458;28;20092;-68
2021/10/02 08:45:40;;;;;;;23.80;16.25;;;14.40;88.30;;;;;;5003406;28;20129;-69
2021/10/02 08:48:11;;;;;;;23.42;15.13;;;14.50;88.00;;;;;;5004671;28;20022;-70
2021/10/02 08:50:40;;;;;;;24.25;15.88;;;14.40;87.40;;;;;;4997177;28;20054;-69
2021/10/02 08:53:07;;;;;;;21.50;14.85;;;14.50;87.80;;;;;;5005848;28;20500;-69
2021/10/02 08:55:34;;;;;;;24.80;15.35;;;14.50;87.30;;;;;;5007496;28;20030;-70
2021/10/02 08:58:00;;;;;;;20.33;14.55;;;14.60;87.40;;;;;;5002725;28;20029;-69
2021/10/02 09:00:27;;;;;;;19.50;13.98;;;14.60;87.40;;;;;;5004711;28;20042;-71
2021/10/02 09:02:53;;;;;;;19.92;13.43;;;14.70;87.20;;;;;;5003492;28;20038;-70
2021/10/02 09:05:21;;;;;;;19.45;12.45;;;14.90;87.00;;;;;;5006887;28;20109;-69
2021/10/02 09:07:53;;;;;;;21.25;12.18;;;14.90;86.00;;;;;;5001183;28;20076;-73
2021/10/02 09:10:19;;;;;;;20.77;12.18;;;15.00;86.10;;;;;;5004626;28;20084;-70
2021/10/02 09:12:47;;;;;;;17.77;11.23;;;15.00;85.90;;;;;;4997340;28;20027;-70
2021/10/02 09:15:14;;;;;;;15.95;9.90;;;15.00;86.10;;;;;;5002245;28;20033;-70
2021/10/02 09:17:40;;;;;;;20.80;10.05;;;15.10;85.70;;;;;;5007556;28;20041;-68
2021/10/02 09:20:07;;;;;;;15.63;9.70;;;15.30;85.20;;;;;;5005847;28;20048;-68
2021/10/02 09:22:33;;;;;;;20.92;9.63;;;15.40;84.80;;;;;;5005808;28;20390;-69
2021/10/02 09:25:01;;;;;;;14.32;9.63;;;15.40;84.60;;;;;;5003739;28;20022;-70
2021/10/02 09:27:29;;;;;;;15.10;9.00;;;15.50;84.50;;;;;;5004772;28;20124;-69
2021/10/02 09:30:00;;;;;;;16.42;8.70;;;15.50;84.10;;;;;;5008281;28;20037;-69
2021/10/02 09:32:32;;;;;;;16.25;8.15;;;15.40;84.30;;;;;;5004745;28;20034;-70
2021/10/02 09:35:07;;;;;;;13.65;7.90;;;15.50;84.40;;;;;;5004593;28;20692;-69
2021/10/02 09:37:36;;;;;;;19.75;9.23;;;15.50;84.40;;;;;;5006290;28;20026;-72
2021/10/02 09:40:11;;;;;;;19.52;9.02;;;15.50;84.30;;;;;;5005558;28;20049;-69
2021/10/02 09:42:40;;;;;;;16.35;7.93;;;15.60;84.20;;;;;;5010627;28;20126;-70
2021/10/02 09:45:17;;;;;;;18.23;8.15;;;15.70;83.80;;;;;;5007940;28;20045;-69
2021/10/02 09:47:47;;;;;;;16.52;8.35;;;15.70;83.10;;;;;;5010301;28;20084;-69
2021/10/02 09:50:19;;;;;;;15.57;8.10;;;15.70;83.10;;;;;;5004857;28;20508;-69
2021/10/02 09:52:47;;;;;;;15.98;8.18;;;15.90;83.10;;;;;;5001067;28;20038;-69
2021/10/02 09:55:17;;;;;;;15.50;8.45;;;15.80;83.00;;;;;;5003401;28;20034;-69
2021/10/02 09:57:46;;;;;;;18.58;8.55;;;15.80;82.90;;;;;;5005177;28;20058;-69
2021/10/02 10:00:14;;;;;;;15.10;8.48;;;15.70;82.70;;;;;;5007842;28;20099;-71
2021/10/02 10:02:41;;;;;;;14.30;8.02;;;15.60;83.20;;;;;;5011354;28;20034;-69
2021/10/02 10:05:09;;;;;;;13.77;7.32;;;15.60;83.20;;;;;;5008091;28;20033;-68
2021/10/02 10:07:35;;;;;;;15.68;7.80;;;15.60;83.60;;;;;;5005039;28;20037;-69
2021/10/02 10:10:13;;;;;;;14.20;6.25;;;15.60;83.70;;;;;;5008155;28;20038;-69
2021/10/02 10:12:41;;;;;;;12.80;6.10;;;15.50;83.30;;;;;;5008570;28;20611;-69
2021/10/02 10:15:32;;;;;;;14.55;6.15;;;15.50;83.40;;;;;;5004685;28;20030;-70
2021/10/02 10:17:58;;;;;;;11.20;6.18;;;15.50;83.50;;;;;;5009269;28;20033;-69
2021/10/02 10:20:37;;;;;;;13.85;5.97;;;15.50;83.30;;;;;;5009217;28;20038;-69
2021/10/02 10:23:05;;;;;;;14.38;6.82;;;15.50;83.30;;;;;;5004525;28;20089;-69
2021/10/02 10:25:31;;;;;;;14.30;6.38;;;15.60;83.30;;;;;;5005739;28;20030;-72
2021/10/02 10:28:00;;;;;;;15.98;6.65;;;15.60;83.00;;;;;;5006041;28;20046;-70
2021/10/02 10:30:28;;;;;;;13.50;7.15;;;15.60;82.90;;;;;;5006618;28;20509;-70
2021/10/02 10:33:07;;;;;;;13.65;6.55;;;15.50;82.80;;;;;;5003941;28;20040;-70
2021/10/02 10:35:38;;;;;;;13.57;7.05;;;15.60;82.80;;;;;;5008990;28;20489;-71
2021/10/02 10:38:06;;;;;;;15.57;7.13;;;15.40;82.90;;;;;;5005106;28;20031;-69
2021/10/02 10:40:32;;;;;;;11.32;6.15;;;15.50;83.30;;;;;;5009320;28;20038;-70
2021/10/02 10:42:58;;;;;;;14.30;5.88;;;15.40;83.50;;;;;;5008647;28;20123;-70
2021/10/02 10:45:24;;;;;;;13.45;6.13;;;15.30;83.60;;;;;;5008012;28;20509;-69
2021/10/02 10:47:51;;;;;;;12.52;6.03;;;15.30;84.10;;;;;;5008436;28;20042;-69
2021/10/02 10:50:17;;;;;;;8.85;5.57;;;15.40;84.20;;;;;;5007278;28;20676;-70
2021/10/02 10:52:45;;;;;;;11.55;5.72;;;15.40;84.10;;;;;;5009860;28;20026;-72
2021/10/02 10:55:19;;;;;;;12.93;5.88;;;15.40;83.70;;;;;;5008511;28;20149;-69
2021/10/02 10:57:54;;;;;;;9.98;5.07;;;15.50;83.70;;;;;;5008341;28;20056;-71
2021/10/02 11:00:41;;;;;;;11.40;5.85;;;15.60;83.60;;;;;;5005990;28;20128;-70
2021/10/02 11:03:08;;;;;;;10.65;5.15;;;15.50;83.60;;;;;;5006502;28;20136;-70
2021/10/02 11:05:37;;;;;;;13.60;5.85;;;15.60;83.20;;;;;;4999166;28;20413;-70
2021/10/02 11:08:07;;;;;;;10.13;5.22;;;15.60;83.10;;;;;;5006983;28;20112;-74
2021/10/02 11:10:48;;;;;;;11.25;5.65;;;15.70;83.20;;;;;;4999939;28;21706;-69
2021/10/02 11:13:28;;;;;;;11.10;5.57;;;15.70;82.90;;;;;;4979385;28;20049;-72
2021/10/02 11:15:53;;;;;;;12.57;5.30;;;15.70;83.10;;;;;;4985577;28;20098;-70
2021/10/02 11:18:47;;;;;;;14.93;6.15;;;15.80;82.80;;;;;;4979375;28;21323;-70
2021/10/02 11:21:18;;;;;;;11.98;6.45;;;15.70;83.00;;;;;;4978523;28;20125;-74
2021/10/02 11:24:03;;;;;;;10.35;5.20;;;15.70;82.50;;;;;;4983012;28;20035;-69
2021/10/02 11:26:43;;;;;;;10.50;6.03;;;15.70;82.50;;;;;;4981053;28;20050;-71
2021/10/02 11:29:21;;;;;;;12.60;5.60;;;15.70;82.60;;;;;;4982951;28;20476;-68
2021/10/02 11:32:11;;;;;;;9.88;5.50;;;15.80;82.20;;;;;;4976601;28;20137;-69
2021/10/02 11:34:38;;;;;;;12.73;6.50;;;15.80;82.30;;;;;;4984612;28;20122;-71
2021/10/02 11:37:09;;;;;;;13.20;5.90;;;15.80;82.00;;;;;;4987030;28;20038;-69
2021/10/02 11:39:35;;;;;;;10.05;5.80;;;15.90;81.90;;;;;;4984986;28;20410;-69
2021/10/02 11:42:06;;;;;;;8.85;5.88;;;15.90;81.50;;;;;;4978746;28;20502;-69
2021/10/02 11:44:32;;;;;;;13.00;6.78;;;16.00;81.90;;;;;;4980954;28;20089;-68
2021/10/02 11:47:36;;;;;;;11.52;6.40;;;16.10;81.90;;;;;;4988026;28;20038;-68
2021/10/02 11:50:10;;;;;;;13.30;6.10;;;16.10;81.90;;;;;;4987844;28;20035;-70
2021/10/02 11:52:37;;;;;;;10.52;6.00;;;16.10;81.60;;;;;;4983923;28;20274;-70
2021/10/02 11:55:40;;;;;;;12.48;6.32;;;16.20;80.90;;;;;;4984157;28;20042;-69
2021/10/02 11:58:11;;;;;;;10.13;6.40;;;16.30;80.90;;;;;;4983228;28;20079;-70
2021/10/02 12:00:38;;;;;;;10.85;5.60;;;16.30;80.80;;;;;;4986042;28;20129;-69
2021/10/02 12:03:05;;;;;;;9.32;5.70;;;16.40;80.40;;;;;;4983082;28;20042;-70
2021/10/02 12:05:32;;;;;;;9.65;5.47;;;16.40;80.00;;;;;;4983907;28;20050;-69
2021/10/02 12:07:59;;;;;;;9.70;4.95;;;16.20;80.10;;;;;;4987531;28;20126;-68
2021/10/02 12:10:26;;;;;;;7.90;4.53;;;16.20;80.20;;;;;;4975301;28;20094;-69
2021/10/02 12:12:52;;;;;;;12.15;4.85;;;16.10;80.50;;;;;;4973506;28;20888;-68
2021/10/02 12:15:34;;;;;;;11.10;4.70;;;16.10;80.70;;;;;;4980633;28;20030;-68
2021/10/02 12:18:00;;;;;;;11.00;5.05;;;16.00;80.70;;;;;;4999344;28;20144;-68
2021/10/02 12:20:40;;;;;;;10.13;4.60;;;16.00;80.50;;;;;;5007868;28;20038;-68
2021/10/02 12:23:08;;;;;;;8.30;3.60;;;16.00;80.40;;;;;;5003041;28;20537;-69
2021/10/02 12:25:34;;;;;;;8.50;3.70;;;15.80;79.20;;;;;;5001918;28;20069;-69
2021/10/02 12:28:00;;;;;;;12.07;3.75;;;15.80;79.50;;;;;;5004575;28;20168;-69
2021/10/02 12:30:26;;;;;;;9.48;3.80;;;15.90;78.40;;;;;;5006136;28;20045;-71
2021/10/02 12:33:01;;;;;;;12.45;3.90;;;15.90;79.20;;;;;;5006468;28;20463;-70
2021/10/02 12:35:27;;;;;;;9.52;3.08;;;16.00;79.50;;;;;;4995991;28;20493;-69
2021/10/02 12:37:56;;;;;;;10.00;2.95;;;16.00;78.90;;;;;;4989755;28;20046;-69
2021/10/02 12:40:23;;;;;;;11.45;3.22;;;16.00;79.10;;;;;;5005067;28;20054;-70
2021/10/02 12:42:53;;;;;;;9.65;2.60;;;16.10;79.10;;;;;;5004474;28;20121;-70
2021/10/02 12:45:26;;;;;;;10.07;3.10;;;16.10;79.40;;;;;;5009603;28;20030;-69
2021/10/02 12:47:59;;;;;;;10.82;3.10;;;16.10;78.20;;;;;;5003206;28;20069;-68
2021/10/02 12:50:30;;;;;;;7.95;3.00;;;16.00;77.90;;;;;;5006826;28;20113;-69
2021/10/02 12:52:58;;;;;;;10.80;3.00;;;16.00;78.40;;;;;;5007760;28;20030;-70
2021/10/02 12:55:24;;;;;;;7.00;2.60;;;16.10;79.40;;;;;;5001077;28;20050;-69
2021/10/02 12:57:51;;;;;;;11.93;3.55;;;16.00;78.60;;;;;;4998947;28;20466;-68
2021/10/02 13:00:19;;;;;;;8.18;3.00;;;16.10;78.60;;;;;;5000336;28;20045;-69
2021/10/02 13:02:49;;;;;;;7.88;2.47;;;16.10;78.20;;;;;;5004698;28;20056;-69
2021/10/02 13:05:18;;;;;;;8.73;3.25;;;16.00;78.20;;;;;;5004140;28;20023;-69
2021/10/02 13:07:48;;;;;;;13.00;3.33;;;15.90;78.00;;;;;;4998393;28;20049;-69
2021/10/02 13:10:17;;;;;;;8.38;2.83;;;15.90;77.60;;;;;;4998581;28;20045;-68
2021/10/02 13:12:59;;;;;;;10.70;3.45;;;16.00;78.50;;;;;;5004831;28;20036;-69
2021/10/02 13:15:30;;;;;;;10.73;3.90;;;16.00;78.20;;;;;;5018494;28;20128;-68
2021/10/02 13:18:02;;;;;;;9.90;3.28;;;16.10;78.60;;;;;;5000662;28;20355;-68
2021/10/02 13:20:29;;;;;;;7.72;2.63;;;16.00;78.50;;;;;;4977996;28;20593;-69
2021/10/02 13:22:55;;;;;;;11.25;3.58;;;16.00;78.90;;;;;;4978357;28;20031;-70
2021/10/02 13:25:24;;;;;;;9.73;2.97;;;16.00;79.00;;;;;;4977522;28;20038;-73
2021/10/02 13:27:55;;;;;;;10.25;3.03;;;15.90;78.50;;;;;;4977226;28;20043;-72
2021/10/02 13:30:26;;;;;;;9.13;2.65;;;16.10;78.40;;;;;;4978688;28;20050;-69
2021/10/02 13:33:04;;;;;;;9.43;2.67;;;16.10;78.80;;;;;;4975556;28;20073;-72
2021/10/02 13:35:36;;;;;;;8.38;2.90;;;16.10;78.00;;;;;;4974698;28;20073;-70
2021/10/02 13:38:08;;;;;;;9.70;2.80;;;16.10;78.60;;;;;;4976314;28;20073;-69